createdAt,value
2022-12-13T00:00:03.001Z,946.5800
2022-12-13T00:00:14.212Z,946.5800
2022-12-13T00:00:25.271Z,946.5800
2022-12-13T00:00:36.968Z,946.5800
2022-12-13T00:00:48.145Z,946.5800
2022-12-13T00:00:59.331Z,946.5800
2022-12-13T00:01:10.511Z,946.5800
2022-12-13T00:01:21.601Z,946.5800
2022-12-13T00:01:32.681Z,946.5800
2022-12-13T00:01:43.874Z,946.5800
2022-12-13T00:01:54.991Z,946.5600
2022-12-13T00:02:06.239Z,946.5600
2022-12-13T00:02:17.452Z,946.5600
2022-12-13T00:02:28.637Z,946.5800
2022-12-13T00:02:39.859Z,946.5600
2022-12-13T00:02:51.007Z,946.5600
2022-12-13T00:03:02.200Z,946.5800
2022-12-13T00:03:13.412Z,946.5600
2022-12-13T00:03:24.598Z,946.5800
2022-12-13T00:03:35.849Z,946.5600
2022-12-13T00:03:46.994Z,946.5400
2022-12-13T00:03:58.158Z,946.5400
2022-12-13T00:04:09.262Z,946.5600
2022-12-13T00:04:20.357Z,946.5600
2022-12-13T00:04:31.557Z,946.5400
2022-12-13T00:04:42.693Z,946.5200
2022-12-13T00:04:53.871Z,946.5400
2022-12-13T00:05:05.093Z,946.5400
2022-12-13T00:05:16.591Z,946.5400
2022-12-13T00:05:27.831Z,946.5400
2022-12-13T00:05:39.004Z,946.5400
2022-12-13T00:05:50.118Z,946.5200
2022-12-13T00:06:01.190Z,946.5200
2022-12-13T00:06:12.292Z,946.5200
2022-12-13T00:06:23.479Z,946.5000
2022-12-13T00:06:34.530Z,946.5200
2022-12-13T00:06:45.601Z,946.5200
2022-12-13T00:06:56.775Z,946.5000
2022-12-13T00:07:07.958Z,946.5000
2022-12-13T00:07:19.171Z,946.5200
2022-12-13T00:07:30.358Z,946.5000
2022-12-13T00:07:41.571Z,946.5000
2022-12-13T00:07:52.794Z,946.5000
2022-12-13T00:08:04.047Z,946.5200
2022-12-13T00:08:15.191Z,946.5200
2022-12-13T00:08:26.407Z,946.5200
2022-12-13T00:08:37.431Z,946.5200
2022-12-13T00:08:48.519Z,946.5200
2022-12-13T00:08:59.640Z,946.5200
2022-12-13T00:09:10.678Z,946.5200
2022-12-13T00:09:21.732Z,946.5200
2022-12-13T00:09:32.949Z,946.5200
2022-12-13T00:09:44.000Z,946.5200
2022-12-13T00:09:55.071Z,946.5000
2022-12-13T00:10:06.202Z,946.5400
2022-12-13T00:10:17.411Z,946.5400
2022-12-13T00:10:28.601Z,946.5200
2022-12-13T00:10:39.798Z,946.5200
2022-12-13T00:10:50.851Z,946.5400
2022-12-13T00:11:01.919Z,946.5400
2022-12-13T00:11:13.075Z,946.5200
2022-12-13T00:11:24.130Z,946.5600
2022-12-13T00:11:35.201Z,946.5600
2022-12-13T00:11:46.361Z,946.5600
2022-12-13T00:11:57.414Z,946.5400
2022-12-13T00:12:08.488Z,946.5400
2022-12-13T00:12:19.648Z,946.5400
2022-12-13T00:12:30.692Z,946.5400
2022-12-13T00:12:41.767Z,946.5400
2022-12-13T00:12:52.935Z,946.5400
2022-12-13T00:13:04.122Z,946.5400
2022-12-13T00:13:15.220Z,946.5600
2022-12-13T00:13:26.300Z,946.5400
2022-12-13T00:13:37.397Z,946.5400
2022-12-13T00:13:48.624Z,946.5400
2022-12-13T00:13:59.802Z,946.5600
2022-12-13T00:14:10.849Z,946.5400
2022-12-13T00:14:21.883Z,946.5400
2022-12-13T00:14:33.099Z,946.5400
2022-12-13T00:14:44.317Z,946.5200
2022-12-13T00:14:55.488Z,946.5400
2022-12-13T00:15:06.692Z,946.5400
2022-12-13T00:15:17.882Z,946.5400
2022-12-13T00:15:29.077Z,946.5200
2022-12-13T00:15:40.308Z,946.5400
2022-12-13T00:15:51.477Z,946.5400
2022-12-13T00:16:02.682Z,946.5400
2022-12-13T00:16:13.784Z,946.5400
2022-12-13T00:16:24.934Z,946.5200
2022-12-13T00:16:36.053Z,946.5200
2022-12-13T00:16:47.302Z,946.5000
2022-12-13T00:16:58.410Z,946.5200
2022-12-13T00:17:09.568Z,946.5200
2022-12-13T00:17:20.649Z,946.5600
2022-12-13T00:17:31.708Z,946.5400
2022-12-13T00:17:42.845Z,946.5400
2022-12-13T00:17:54.059Z,946.5400
2022-12-13T00:18:05.238Z,946.5600
2022-12-13T00:18:16.459Z,946.5200
2022-12-13T00:18:27.511Z,946.5400
2022-12-13T00:18:38.590Z,946.5200
2022-12-13T00:18:49.719Z,946.5200
2022-12-13T00:19:00.943Z,946.5200
2022-12-13T00:19:12.125Z,946.5400
2022-12-13T00:19:23.331Z,946.5200
2022-12-13T00:19:34.514Z,946.5200
2022-12-13T00:19:45.781Z,946.5400
2022-12-13T00:19:56.928Z,946.5000
2022-12-13T00:20:08.127Z,946.4900
2022-12-13T00:20:19.319Z,946.5000
2022-12-13T00:20:30.400Z,946.5000
2022-12-13T00:20:41.462Z,946.5000
2022-12-13T00:20:52.632Z,946.5000
2022-12-13T00:21:03.801Z,946.4900
2022-12-13T00:21:14.903Z,946.4900
2022-12-13T00:21:26.020Z,946.4900
2022-12-13T00:21:37.081Z,946.4900
2022-12-13T00:21:48.317Z,946.4900
2022-12-13T00:21:59.481Z,946.4900
2022-12-13T00:22:10.680Z,946.4900
2022-12-13T00:22:21.888Z,946.4900
2022-12-13T00:22:32.928Z,946.4900
2022-12-13T00:22:43.999Z,946.4700
2022-12-13T00:22:55.160Z,946.4700
2022-12-13T00:23:06.210Z,946.4900
2022-12-13T00:23:17.298Z,946.4900
2022-12-13T00:23:28.456Z,946.4900
2022-12-13T00:23:39.520Z,946.4900
2022-12-13T00:23:50.582Z,946.4900
2022-12-13T00:24:01.718Z,946.4900
2022-12-13T00:24:12.800Z,946.4900
2022-12-13T00:24:23.850Z,946.5000
2022-12-13T00:24:35.013Z,946.5000
2022-12-13T00:24:46.367Z,946.5000
2022-12-13T00:24:57.457Z,946.4900
2022-12-13T00:25:08.592Z,946.5000
2022-12-13T00:25:19.815Z,946.4900
2022-12-13T00:25:30.998Z,946.4700
2022-12-13T00:25:42.218Z,946.4900
2022-12-13T00:25:53.397Z,946.4900
2022-12-13T00:26:04.620Z,946.4900
2022-12-13T00:26:15.798Z,946.4900
2022-12-13T00:26:27.019Z,946.4900
2022-12-13T00:26:38.193Z,946.4900
2022-12-13T00:26:49.418Z,946.4700
2022-12-13T00:27:00.620Z,946.4900
2022-12-13T00:27:11.812Z,946.4900
2022-12-13T00:27:22.991Z,946.4700
2022-12-13T00:27:34.219Z,946.4500
2022-12-13T00:27:45.278Z,946.4700
2022-12-13T00:27:56.337Z,946.4500
2022-12-13T00:28:07.391Z,946.4500
2022-12-13T00:28:19.047Z,946.4300
2022-12-13T00:28:30.090Z,946.4500
2022-12-13T00:28:41.172Z,946.4500
2022-12-13T00:28:52.236Z,946.4500
2022-12-13T00:29:03.301Z,946.4300
2022-12-13T00:29:14.361Z,946.4300
2022-12-13T00:29:25.408Z,946.4300
2022-12-13T00:29:36.483Z,946.4300
2022-12-13T00:29:47.667Z,946.4300
2022-12-13T00:29:58.710Z,946.4300
2022-12-13T00:30:09.782Z,946.4300
2022-12-13T00:30:20.811Z,946.4100
2022-12-13T00:30:31.927Z,946.4100
2022-12-13T00:30:43.729Z,946.4300
2022-12-13T00:30:54.871Z,946.4300
2022-12-13T00:31:43.225Z,946.4300
2022-12-13T00:32:00.369Z,946.4100
2022-12-13T00:32:12.396Z,946.4100
2022-12-13T00:32:23.551Z,946.4100
2022-12-13T00:32:34.670Z,946.4100
2022-12-13T00:32:45.891Z,946.4300
2022-12-13T00:32:57.080Z,946.4300
2022-12-13T00:33:08.282Z,946.4100
2022-12-13T00:33:19.482Z,946.3900
2022-12-13T00:33:30.679Z,946.4100
2022-12-13T00:33:41.729Z,946.4100
2022-12-13T00:33:52.811Z,946.4100
2022-12-13T00:34:03.974Z,946.4300
2022-12-13T00:34:14.998Z,946.4300
2022-12-13T00:34:26.047Z,946.3900
2022-12-13T00:34:37.260Z,946.4300
2022-12-13T00:34:48.476Z,946.4300
2022-12-13T00:34:59.648Z,946.4500
2022-12-13T00:35:10.831Z,946.4500
2022-12-13T00:35:22.042Z,946.4300
2022-12-13T00:35:33.239Z,946.4300
2022-12-13T00:35:44.438Z,946.4300
2022-12-13T00:35:55.648Z,946.4300
2022-12-13T00:36:06.851Z,946.4300
2022-12-13T00:36:17.907Z,946.4500
2022-12-13T00:36:28.978Z,946.4300
2022-12-13T00:36:40.132Z,946.4300
2022-12-13T00:36:51.201Z,946.4500
2022-12-13T00:37:02.274Z,946.4500
2022-12-13T00:37:13.408Z,946.4500
2022-12-13T00:37:24.481Z,946.4500
2022-12-13T00:37:35.567Z,946.4500
2022-12-13T00:37:46.688Z,946.4700
2022-12-13T00:37:57.728Z,946.4500
2022-12-13T00:38:08.779Z,946.4700
2022-12-13T00:38:19.838Z,946.4300
2022-12-13T00:38:30.890Z,946.4500
2022-12-13T00:38:42.057Z,946.4700
2022-12-13T00:38:53.246Z,946.4500
2022-12-13T00:39:04.451Z,946.4500
2022-12-13T00:39:15.638Z,946.4700
2022-12-13T00:39:26.860Z,946.4700
2022-12-13T00:39:37.917Z,946.4700
2022-12-13T00:39:49.017Z,946.4500
2022-12-13T00:40:00.130Z,946.4500
2022-12-13T00:40:11.319Z,946.4500
2022-12-13T00:40:22.511Z,946.4300
2022-12-13T00:40:33.749Z,946.4300
2022-12-13T00:40:44.943Z,946.4100
2022-12-13T00:40:56.132Z,946.4100
2022-12-13T00:41:07.221Z,946.4100
2022-12-13T00:41:18.298Z,946.4100
2022-12-13T00:41:29.400Z,946.4100
2022-12-13T00:41:40.471Z,946.4100
2022-12-13T00:41:51.548Z,946.3900
2022-12-13T00:42:02.681Z,946.3900
2022-12-13T00:42:13.883Z,946.3700
2022-12-13T00:42:25.080Z,946.3700
2022-12-13T00:42:36.270Z,946.3700
2022-12-13T00:42:47.329Z,946.3500
2022-12-13T00:42:58.397Z,946.3700
2022-12-13T00:43:09.568Z,946.3500
2022-12-13T00:43:20.760Z,946.3500
2022-12-13T00:43:31.971Z,946.2700
2022-12-13T00:43:43.150Z,946.2700
2022-12-13T00:43:54.371Z,946.3500
2022-12-13T00:44:05.568Z,946.2700
2022-12-13T00:44:16.780Z,946.2700
2022-12-13T00:44:27.959Z,946.2700
2022-12-13T00:44:39.170Z,946.2700
2022-12-13T00:44:50.699Z,946.2700
2022-12-13T00:45:01.891Z,946.2700
2022-12-13T00:45:13.512Z,946.2700
2022-12-13T00:45:24.967Z,946.2500
2022-12-13T00:45:36.011Z,946.2300
2022-12-13T00:45:47.139Z,946.2300
2022-12-13T00:45:58.213Z,946.2100
2022-12-13T00:46:09.319Z,946.2500
2022-12-13T00:46:20.629Z,946.2500
2022-12-13T00:46:31.908Z,946.2500
2022-12-13T00:46:43.054Z,946.2500
2022-12-13T00:46:54.200Z,946.2500
2022-12-13T00:47:05.397Z,946.2100
2022-12-13T00:47:16.611Z,946.2100
2022-12-13T00:47:27.799Z,946.2100
2022-12-13T00:47:38.847Z,946.2100
2022-12-13T00:47:49.910Z,946.2300
2022-12-13T00:48:01.091Z,946.2500
2022-12-13T00:48:12.271Z,946.2300
2022-12-13T00:48:23.492Z,946.2300
2022-12-13T00:48:34.678Z,946.2300
2022-12-13T00:48:45.971Z,946.2300
2022-12-13T00:48:57.081Z,946.2300
2022-12-13T00:49:08.303Z,946.2100
2022-12-13T00:49:19.494Z,946.2700
2022-12-13T00:49:30.702Z,946.2500
2022-12-13T00:49:41.758Z,946.2500
2022-12-13T00:49:52.867Z,946.2500
2022-12-13T00:50:04.737Z,946.2300
2022-12-13T00:50:15.797Z,946.2500
2022-12-13T00:50:26.867Z,946.2500
2022-12-13T00:50:37.919Z,946.2700
2022-12-13T00:50:49.078Z,946.2500
2022-12-13T00:51:00.293Z,946.2500
2022-12-13T00:51:11.353Z,946.2500
2022-12-13T00:51:22.440Z,946.2700
2022-12-13T00:51:33.567Z,946.2700
2022-12-13T00:51:44.638Z,946.2500
2022-12-13T00:51:55.705Z,946.2500
2022-12-13T00:52:06.843Z,946.2500
2022-12-13T00:52:18.037Z,946.2500
2022-12-13T00:52:29.259Z,946.2500
2022-12-13T00:52:40.439Z,946.2500
2022-12-13T00:52:51.648Z,946.2500
2022-12-13T00:53:02.837Z,946.2500
2022-12-13T00:53:14.041Z,946.2100
2022-12-13T00:53:25.238Z,946.2100
2022-12-13T00:53:36.460Z,946.2300
2022-12-13T00:53:47.522Z,946.2300
2022-12-13T00:53:58.588Z,946.2100
2022-12-13T00:54:09.722Z,946.1900
2022-12-13T00:54:20.936Z,946.2300
2022-12-13T00:54:32.132Z,946.2300
2022-12-13T00:54:43.351Z,946.2100
2022-12-13T00:54:54.448Z,946.2100
2022-12-13T00:55:05.509Z,946.1900
2022-12-13T00:55:17.003Z,946.2100
2022-12-13T00:55:28.177Z,946.2100
2022-12-13T00:55:39.328Z,946.2100
2022-12-13T00:55:50.401Z,946.2100
2022-12-13T00:56:01.461Z,946.2300
2022-12-13T00:56:12.612Z,946.2300
2022-12-13T00:56:23.678Z,946.2300
2022-12-13T00:56:34.751Z,946.2300
2022-12-13T00:56:45.945Z,946.2100
2022-12-13T00:56:57.103Z,946.2300
2022-12-13T00:57:09.283Z,946.2300
2022-12-13T00:57:20.448Z,946.2300
2022-12-13T00:57:31.631Z,946.2100
2022-12-13T00:57:42.848Z,946.2300
2022-12-13T00:57:53.912Z,946.2300
2022-12-13T00:58:04.981Z,946.2100
2022-12-13T00:58:16.121Z,946.2300
2022-12-13T00:58:27.188Z,946.2300
2022-12-13T00:58:38.261Z,946.2100
2022-12-13T00:58:52.135Z,946.2300
2022-12-13T00:59:03.852Z,946.2100
2022-12-13T00:59:15.016Z,946.2300
2022-12-13T00:59:26.071Z,946.2300
2022-12-13T00:59:37.137Z,946.2500
2022-12-13T00:59:48.288Z,946.2500
2022-12-13T00:59:59.391Z,946.2500
2022-12-13T01:00:10.475Z,946.2500
2022-12-13T01:00:21.557Z,946.2300
2022-12-13T01:00:32.610Z,946.2500
2022-12-13T01:00:43.692Z,946.2300
2022-12-13T01:00:54.848Z,946.2500
2022-12-13T01:01:05.976Z,946.2500
2022-12-13T01:01:17.185Z,946.2500
2022-12-13T01:01:28.315Z,946.2500
2022-12-13T01:01:39.467Z,946.2500
2022-12-13T01:01:50.790Z,946.2500
2022-12-13T01:02:01.953Z,946.2300
2022-12-13T01:02:13.047Z,946.2300
2022-12-13T01:02:24.131Z,946.2300
2022-12-13T01:02:35.321Z,946.2100
2022-12-13T01:02:46.522Z,946.2100
2022-12-13T01:02:57.778Z,946.2500
2022-12-13T01:03:08.966Z,946.2500
2022-12-13T01:03:20.194Z,946.2500
2022-12-13T01:03:31.396Z,946.2500
2022-12-13T01:03:42.480Z,946.2100
2022-12-13T01:03:53.548Z,946.2100
2022-12-13T01:04:04.614Z,946.2100
2022-12-13T01:04:15.829Z,946.2100
2022-12-13T01:04:27.007Z,946.1900
2022-12-13T01:04:38.214Z,946.1900
2022-12-13T01:04:49.271Z,946.1900
2022-12-13T01:05:00.410Z,946.1900
2022-12-13T01:05:11.686Z,946.1900
2022-12-13T01:05:47.282Z,946.1900
2022-12-13T01:06:13.551Z,946.1700
2022-12-13T01:06:14.996Z,946.1500
2022-12-13T01:06:15.617Z,946.1500
2022-12-13T01:06:27.377Z,946.1500
2022-12-13T01:06:38.418Z,946.1300
2022-12-13T01:06:49.546Z,946.1300
2022-12-13T01:07:00.615Z,946.1300
2022-12-13T01:07:11.808Z,946.1700
2022-12-13T01:07:22.879Z,946.1700
2022-12-13T01:07:33.941Z,946.1700
2022-12-13T01:07:45.084Z,946.1700
2022-12-13T01:07:56.232Z,946.1700
2022-12-13T01:08:07.341Z,946.1700
2022-12-13T01:08:18.481Z,946.1700
2022-12-13T01:08:29.584Z,946.1700
2022-12-13T01:08:40.648Z,946.1700
2022-12-13T01:08:51.722Z,946.1700
2022-12-13T01:09:02.856Z,946.1700
2022-12-13T01:09:14.037Z,946.1900
2022-12-13T01:09:25.251Z,946.1700
2022-12-13T01:09:36.320Z,946.1700
2022-12-13T01:09:47.391Z,946.1700
2022-12-13T01:09:58.518Z,946.1500
2022-12-13T01:10:09.784Z,946.1500
2022-12-13T01:10:20.924Z,946.1500
2022-12-13T01:10:32.141Z,946.1700
2022-12-13T01:10:43.191Z,946.1500
2022-12-13T01:10:54.242Z,946.1500
2022-12-13T01:11:05.399Z,946.1300
2022-12-13T01:11:16.439Z,946.1500
2022-12-13T01:11:27.501Z,946.1500
2022-12-13T01:11:38.680Z,946.1300
2022-12-13T01:11:49.755Z,946.1500
2022-12-13T01:12:00.846Z,946.1300
2022-12-13T01:12:11.957Z,946.1300
2022-12-13T01:12:23.171Z,946.1300
2022-12-13T01:12:34.353Z,946.1100
2022-12-13T01:12:45.455Z,946.1100
2022-12-13T01:12:56.508Z,946.1100
2022-12-13T01:13:07.661Z,946.1300
2022-12-13T01:13:18.838Z,946.1100
2022-12-13T01:13:30.051Z,946.1300
2022-12-13T01:13:41.120Z,946.1300
2022-12-13T01:13:52.179Z,946.1100
2022-12-13T01:14:03.231Z,946.1100
2022-12-13T01:14:14.327Z,946.1100
2022-12-13T01:14:25.408Z,946.0900
2022-12-13T01:14:36.610Z,946.1100
2022-12-13T01:14:50.671Z,946.1100
2022-12-13T01:15:04.759Z,946.0700
2022-12-13T01:15:16.291Z,946.0700
2022-12-13T01:15:27.527Z,946.0700
2022-12-13T01:15:38.692Z,946.0700
2022-12-13T01:15:49.883Z,946.0500
2022-12-13T01:16:00.958Z,946.1100
2022-12-13T01:16:12.031Z,946.1100
2022-12-13T01:16:23.236Z,946.0900
2022-12-13T01:16:34.395Z,946.1100
2022-12-13T01:16:45.481Z,946.1100
2022-12-13T01:16:56.671Z,946.1100
2022-12-13T01:17:07.705Z,946.1300
2022-12-13T01:17:18.847Z,946.1300
2022-12-13T01:17:30.030Z,946.1300
2022-12-13T01:17:41.251Z,946.1100
2022-12-13T01:17:52.311Z,946.1100
2022-12-13T01:18:03.387Z,946.1300
2022-12-13T01:18:14.438Z,946.1300
2022-12-13T01:18:25.492Z,946.1300
2022-12-13T01:18:36.600Z,946.1300
2022-12-13T01:18:47.814Z,946.1500
2022-12-13T01:18:59.002Z,946.1500
2022-12-13T01:19:10.209Z,946.0900
2022-12-13T01:19:21.306Z,946.0900
2022-12-13T01:19:32.339Z,946.0900
2022-12-13T01:19:43.479Z,946.1300
2022-12-13T01:19:54.699Z,946.1300
2022-12-13T01:20:05.758Z,946.1300
2022-12-13T01:20:16.863Z,946.1300
2022-12-13T01:20:27.958Z,946.1300
2022-12-13T01:20:39.171Z,946.1300
2022-12-13T01:20:50.357Z,946.1300
2022-12-13T01:21:01.570Z,946.1100
2022-12-13T01:21:12.755Z,946.1100
2022-12-13T01:21:23.808Z,946.1100
2022-12-13T01:21:34.872Z,946.1100
2022-12-13T01:21:46.047Z,946.1100
2022-12-13T01:21:57.237Z,946.1100
2022-12-13T01:22:11.066Z,946.1300
2022-12-13T01:22:22.210Z,946.1300
2022-12-13T01:22:33.413Z,946.1300
2022-12-13T01:22:44.478Z,946.1300
2022-12-13T01:22:55.544Z,946.1100
2022-12-13T01:23:06.607Z,946.1100
2022-12-13T01:23:17.679Z,946.1100
2022-12-13T01:23:28.770Z,946.1100
2022-12-13T01:23:39.838Z,946.1100
2022-12-13T01:23:50.920Z,946.1100
2022-12-13T01:24:02.053Z,946.0900
2022-12-13T01:24:13.118Z,946.1100
2022-12-13T01:24:24.179Z,946.1100
2022-12-13T01:24:35.324Z,946.1100
2022-12-13T01:24:46.541Z,946.1100
2022-12-13T01:24:57.710Z,946.1100
2022-12-13T01:25:08.758Z,946.1100
2022-12-13T01:25:19.835Z,946.1100
2022-12-13T01:25:30.998Z,946.1300
2022-12-13T01:25:42.208Z,946.1300
2022-12-13T01:25:53.412Z,946.1100
2022-12-13T01:26:04.509Z,946.1100
2022-12-13T01:26:15.570Z,946.0900
2022-12-13T01:26:26.628Z,946.0900
2022-12-13T01:26:37.689Z,946.0900
2022-12-13T01:26:48.757Z,946.0900
2022-12-13T01:26:59.811Z,946.0700
2022-12-13T01:27:10.895Z,946.0700
2022-12-13T01:27:22.040Z,946.0500
2022-12-13T01:27:33.113Z,946.0500
2022-12-13T01:27:44.168Z,946.0500
2022-12-13T01:27:55.331Z,946.0700
2022-12-13T01:28:06.531Z,946.0300
2022-12-13T01:28:17.717Z,946.0500
2022-12-13T01:28:28.921Z,946.0700
2022-12-13T01:28:39.977Z,946.0300
2022-12-13T01:28:51.039Z,946.0100
2022-12-13T01:29:02.218Z,946.0100
2022-12-13T01:29:13.278Z,946.0100
2022-12-13T01:29:24.351Z,945.9900
2022-12-13T01:29:37.088Z,946.0300
2022-12-13T01:29:48.285Z,946.0300
2022-12-13T01:29:59.493Z,946.0300
2022-12-13T01:30:10.679Z,946.0300
2022-12-13T01:30:21.921Z,946.0300
2022-12-13T01:30:33.054Z,946.0300
2022-12-13T01:30:44.360Z,946.0100
2022-12-13T01:30:55.570Z,946.0100
2022-12-13T01:31:06.783Z,945.9700
2022-12-13T01:31:17.936Z,945.9700
2022-12-13T01:31:29.094Z,945.9700
2022-12-13T01:31:40.292Z,945.9900
2022-12-13T01:31:51.500Z,945.9900
2022-12-13T01:32:02.683Z,945.9700
2022-12-13T01:32:13.740Z,945.9600
2022-12-13T01:32:24.818Z,945.9600
2022-12-13T01:32:35.971Z,945.9600
2022-12-13T01:32:47.038Z,945.9600
2022-12-13T01:32:58.108Z,945.9600
2022-12-13T01:33:14.297Z,945.9600
2022-12-13T01:33:26.202Z,945.9400
2022-12-13T01:33:37.401Z,945.9600
2022-12-13T01:33:48.459Z,945.9600
2022-12-13T01:33:59.529Z,945.9600
2022-12-13T01:34:10.846Z,945.9600
2022-12-13T01:34:21.877Z,945.9600
2022-12-13T01:34:38.876Z,945.9600
2022-12-13T01:34:49.919Z,945.9700
2022-12-13T01:35:00.981Z,945.9700
2022-12-13T01:35:12.560Z,945.9600
2022-12-13T01:35:24.061Z,945.9600
2022-12-13T01:35:35.168Z,945.9600
2022-12-13T01:35:46.231Z,945.9700
2022-12-13T01:35:57.318Z,945.9700
2022-12-13T01:36:08.459Z,945.9700
2022-12-13T01:36:19.641Z,945.9700
2022-12-13T01:36:38.117Z,945.9600
2022-12-13T01:36:49.458Z,945.9700
2022-12-13T01:37:00.622Z,945.9700
2022-12-13T01:37:11.792Z,945.9600
2022-12-13T01:37:26.069Z,945.9700
2022-12-13T01:37:37.707Z,945.9700
2022-12-13T01:37:48.968Z,945.9700
2022-12-13T01:38:00.007Z,945.9700
2022-12-13T01:38:15.962Z,945.9700
2022-12-13T01:38:28.012Z,945.9900
2022-12-13T01:38:39.171Z,945.9700
2022-12-13T01:38:50.271Z,945.9700
2022-12-13T01:39:01.333Z,945.9600
2022-12-13T01:39:18.298Z,945.9700
2022-12-13T01:39:29.415Z,945.9600
2022-12-13T01:39:40.610Z,945.9600
2022-12-13T01:39:51.801Z,945.9700
2022-12-13T01:40:08.918Z,945.9700
2022-12-13T01:40:26.551Z,945.9600
2022-12-13T01:40:38.568Z,945.9700
2022-12-13T01:40:50.077Z,945.9700
2022-12-13T01:41:01.248Z,945.9700
2022-12-13T01:41:17.736Z,945.9600
2022-12-13T01:41:29.281Z,945.9700
2022-12-13T01:41:40.384Z,945.9700
2022-12-13T01:41:51.488Z,945.9700
2022-12-13T01:42:02.699Z,945.9600
2022-12-13T01:42:13.880Z,945.9400
2022-12-13T01:42:25.091Z,945.9600
2022-12-13T01:42:36.280Z,945.9400
2022-12-13T01:42:47.480Z,945.9600
2022-12-13T01:42:58.677Z,945.9400
2022-12-13T01:43:14.834Z,945.9400
2022-12-13T01:43:26.851Z,945.9600
2022-12-13T01:43:37.912Z,945.9900
2022-12-13T01:43:48.993Z,945.9600
2022-12-13T01:44:00.128Z,945.9600
2022-12-13T01:44:11.344Z,945.9600
2022-12-13T01:44:22.562Z,945.9600
2022-12-13T01:44:33.718Z,945.9600
2022-12-13T01:44:44.808Z,945.9600
2022-12-13T01:44:55.887Z,945.9600
2022-12-13T01:45:07.018Z,945.9600
2022-12-13T01:45:18.211Z,945.9600
2022-12-13T01:45:29.439Z,945.9600
2022-12-13T01:45:40.597Z,945.9600
2022-12-13T01:45:51.864Z,945.9600
2022-12-13T01:46:03.038Z,945.9600
2022-12-13T01:46:14.252Z,945.9600
2022-12-13T01:46:25.420Z,945.9400
2022-12-13T01:46:36.676Z,945.9700
2022-12-13T01:46:47.718Z,945.9600
2022-12-13T01:46:58.781Z,945.9400
2022-12-13T01:47:09.871Z,945.9400
2022-12-13T01:47:21.091Z,945.9400
2022-12-13T01:47:32.209Z,945.9600
2022-12-13T01:47:43.258Z,945.9600
2022-12-13T01:47:54.317Z,945.9600
2022-12-13T01:48:05.381Z,945.9400
2022-12-13T01:48:16.441Z,945.9400
2022-12-13T01:48:27.641Z,945.9600
2022-12-13T01:48:38.833Z,945.9700
2022-12-13T01:48:50.060Z,945.9600
2022-12-13T01:49:01.241Z,945.9600
2022-12-13T01:49:20.046Z,945.9600
2022-12-13T01:49:29.408Z,945.9600
2022-12-13T01:49:40.648Z,945.9600
2022-12-13T01:49:51.800Z,945.9600
2022-12-13T01:50:02.999Z,945.9600
2022-12-13T01:50:14.214Z,945.9400
2022-12-13T01:50:25.271Z,945.9400
2022-12-13T01:50:36.380Z,945.9600
2022-12-13T01:50:47.481Z,945.9600
2022-12-13T01:50:58.562Z,945.9600
2022-12-13T01:51:09.662Z,945.9600
2022-12-13T01:51:20.780Z,945.9600
2022-12-13T01:51:31.992Z,945.9600
2022-12-13T01:51:43.171Z,945.9600
2022-12-13T01:51:54.385Z,945.9600
2022-12-13T01:52:05.585Z,945.9600
2022-12-13T01:52:16.757Z,945.9200
2022-12-13T01:52:27.800Z,945.9200
2022-12-13T01:52:38.881Z,945.9200
2022-12-13T01:52:50.040Z,945.9200
2022-12-13T01:53:01.124Z,945.9200
2022-12-13T01:53:12.232Z,945.9400
2022-12-13T01:53:23.355Z,945.9400
2022-12-13T01:53:34.542Z,945.9400
2022-12-13T01:53:45.607Z,945.9400
2022-12-13T01:53:56.663Z,945.9400
2022-12-13T01:54:07.798Z,945.9400
2022-12-13T01:54:21.218Z,945.9400
2022-12-13T01:54:33.573Z,945.9600
2022-12-13T01:54:46.748Z,945.9400
2022-12-13T01:55:03.591Z,945.9400
2022-12-13T01:55:15.058Z,945.9400
2022-12-13T01:55:26.201Z,945.9600
2022-12-13T01:55:41.514Z,945.9600
2022-12-13T01:55:53.135Z,945.9600
2022-12-13T01:56:04.291Z,945.9600
2022-12-13T01:56:15.493Z,945.9600
2022-12-13T01:56:26.558Z,945.9200
2022-12-13T01:56:37.639Z,945.9400
2022-12-13T01:56:48.781Z,945.9600
2022-12-13T01:57:00.830Z,945.9600
2022-12-13T01:57:12.154Z,945.9600
2022-12-13T01:57:23.335Z,945.9600
2022-12-13T01:57:34.521Z,945.9600
2022-12-13T01:57:46.042Z,945.9400
2022-12-13T01:57:57.311Z,945.9400
2022-12-13T01:58:08.371Z,945.9400
2022-12-13T01:58:19.448Z,945.9600
2022-12-13T01:58:30.521Z,945.9600
2022-12-13T01:58:41.744Z,945.9400
2022-12-13T01:58:52.919Z,945.9400
2022-12-13T01:59:04.130Z,945.9400
2022-12-13T01:59:15.317Z,945.9400
2022-12-13T01:59:26.533Z,945.9200
2022-12-13T01:59:37.714Z,945.9200
2022-12-13T01:59:48.939Z,945.9400
2022-12-13T02:00:00.125Z,945.9600
2022-12-13T02:00:11.332Z,945.9400
2022-12-13T02:00:22.520Z,945.9600
2022-12-13T02:00:33.731Z,945.9200
2022-12-13T02:00:44.973Z,945.9200
2022-12-13T02:00:56.137Z,945.9200
2022-12-13T02:01:07.359Z,945.9200
2022-12-13T02:01:18.481Z,945.9200
2022-12-13T02:01:29.823Z,945.9400
2022-12-13T02:01:40.948Z,945.9400
2022-12-13T02:01:52.129Z,945.9400
2022-12-13T02:02:09.079Z,945.9200
2022-12-13T02:02:20.281Z,945.9200
2022-12-13T02:02:31.502Z,945.9200
2022-12-13T02:02:42.671Z,945.9400
2022-12-13T02:02:53.891Z,945.9400
2022-12-13T02:03:05.077Z,945.9600
2022-12-13T02:03:21.269Z,945.9600
2022-12-13T02:03:33.105Z,945.9400
2022-12-13T02:03:44.161Z,945.9600
2022-12-13T02:03:55.319Z,945.9600
2022-12-13T02:04:06.532Z,945.9400
2022-12-13T02:04:17.591Z,945.9600
2022-12-13T02:04:28.663Z,945.9600
2022-12-13T02:04:44.130Z,945.9400
2022-12-13T02:04:56.861Z,945.9600
2022-12-13T02:05:08.057Z,945.9700
2022-12-13T02:05:19.390Z,945.9600
2022-12-13T02:05:30.760Z,945.9600
2022-12-13T02:05:41.880Z,945.9600
2022-12-13T02:05:53.108Z,945.9600
2022-12-13T02:06:04.286Z,945.9400
2022-12-13T02:06:15.340Z,945.9600
2022-12-13T02:06:26.432Z,945.9600
2022-12-13T02:06:37.481Z,945.9600
2022-12-13T02:06:48.552Z,945.9600
2022-12-13T02:06:59.669Z,945.9400
2022-12-13T02:07:10.841Z,945.9200
2022-12-13T02:07:23.772Z,945.9400
2022-12-13T02:07:34.853Z,945.9400
2022-12-13T02:07:46.044Z,945.9400
2022-12-13T02:07:57.202Z,945.9400
2022-12-13T02:08:08.308Z,945.9200
2022-12-13T02:08:19.409Z,945.9400
2022-12-13T02:08:30.555Z,945.9400
2022-12-13T02:08:47.479Z,945.9400
2022-12-13T02:08:58.671Z,945.9200
2022-12-13T02:09:09.718Z,945.9200
2022-12-13T02:09:20.779Z,945.9200
2022-12-13T02:09:31.982Z,945.9200
2022-12-13T02:09:43.157Z,945.9200
2022-12-13T02:09:56.675Z,945.9000
2022-12-13T02:10:08.481Z,945.9000
2022-12-13T02:10:19.652Z,945.8800
2022-12-13T02:10:30.837Z,945.8600
2022-12-13T02:10:41.888Z,945.8800
2022-12-13T02:10:52.957Z,945.8800
2022-12-13T02:11:04.151Z,945.8800
2022-12-13T02:11:15.316Z,945.8800
2022-12-13T02:11:26.531Z,945.8600
2022-12-13T02:11:37.711Z,945.8400
2022-12-13T02:11:48.757Z,945.8200
2022-12-13T02:11:59.808Z,945.8400
2022-12-13T02:12:11.011Z,945.8400
2022-12-13T02:12:22.198Z,945.8400
2022-12-13T02:12:39.159Z,945.8400
2022-12-13T02:12:50.217Z,945.8400
2022-12-13T02:13:01.285Z,945.8200
2022-12-13T02:13:12.437Z,945.8200
2022-12-13T02:13:23.652Z,945.8000
2022-12-13T02:13:34.838Z,945.8200
2022-12-13T02:13:46.048Z,945.8000
2022-12-13T02:13:57.117Z,945.8000
2022-12-13T02:14:08.197Z,945.8200